Terminal Aerodrome Forecast
Issued by NWS Charleston, WV

Home | Current Version | Previous Version | Text Only | Print | Product List | Glossary On
Versions: 1 2 3 4 5 6 7 8 9 10 11 12 13 14 15 16 17 18 19 20 21 22 23 24 25 26 27
000
FTUS41 KRLX 042328
TAFHTS
TAF
KHTS 042328Z 0500/0524 VRB03KT P6SM SCT040 BKN250
     FM050600 00000KT 6SM HZ SCT040
     FM050800 00000KT 2SM BR SCT001 SCT040
     FM051200 00000KT 4SM BR SCT040
     FM051300 VRB03KT P6SM SCT040=

USA.gov is the U.S. government's official web portal to all federal, state and local government web resources and services.